Time;durP1;ratioP1;P1;durP2;ratioP2;P2;SDS_P1;SDS_P2;PMS_P1;PMS_P2;Temp;Humidity;BMP_temperature;BMP_pressure;BME280_temperature;BME280_humidity;BME280_pressure;Samples;Min_cycle;Max_cycle;Signal;HPM_P1;HPM_P2
2021/07/09 00:02:42;;;;;;;11.90;5.07;;;;;;;25.66;60.98;101829.78;5111141;28;20715;-65
2021/07/09 00:05:08;;;;;;;11.83;4.77;;;;;;;25.74;60.86;101813.78;5092162;28;20187;-65
2021/07/09 00:07:33;;;;;;;5.97;4.57;;;;;;;24.96;60.89;101698.28;5090968;28;20184;-64
2021/07/09 00:09:59;;;;;;;8.63;5.03;;;;;;;25.44;60.91;101767.19;5109776;28;20182;-64
2021/07/09 00:12:24;;;;;;;13.53;4.80;;;;;;;25.53;61.04;101792.53;5106835;28;20178;-64
2021/07/09 00:14:50;;;;;;;8.67;5.57;;;;;;;25.66;61.16;101826.13;5094483;28;20183;-65
2021/07/09 00:17:15;;;;;;;9.93;4.80;;;;;;;25.66;61.14;101811.94;5101637;28;20183;-64
2021/07/09 00:19:41;;;;;;;7.60;4.77;;;;;;;25.63;61.06;101827.16;5090899;28;20175;-65
2021/07/09 00:22:07;;;;;;;10.30;4.90;;;;;;;25.53;61.49;101805.97;5088537;28;20262;-65
2021/07/09 00:24:33;;;;;;;9.80;4.80;;;;;;;25.62;61.45;101817.88;5103081;28;20641;-65
2021/07/09 00:27:00;;;;;;;9.83;4.90;;;;;;;25.60;61.60;101823.28;5093653;28;20660;-64
2021/07/09 00:29:26;;;;;;;12.27;5.50;;;;;;;25.57;61.59;101823.50;5092019;28;20591;-65
2021/07/09 00:31:51;;;;;;;9.57;5.40;;;;;;;25.66;61.34;101826.94;5092877;28;20183;-65
2021/07/09 00:34:19;;;;;;;10.80;4.87;;;;;;;25.59;61.62;101829.47;5089580;28;20261;-65
2021/07/09 00:36:45;;;;;;;8.73;5.03;;;;;;;25.22;61.47;101761.38;5105075;28;20558;-65
2021/07/09 00:39:10;;;;;;;11.10;5.10;;;;;;;25.67;61.34;101819.97;5092141;28;20183;-65
2021/07/09 00:41:36;;;;;;;11.17;5.27;;;;;;;25.71;61.29;101820.50;5090399;28;20202;-64
2021/07/09 00:44:02;;;;;;;6.23;5.13;;;;;;;25.62;61.37;101826.38;5089592;28;20183;-65
2021/07/09 00:46:29;;;;;;;11.10;5.40;;;;;;;25.69;61.29;101825.91;5090523;28;20175;-65
2021/07/09 00:48:55;;;;;;;8.87;5.00;;;;;;;24.98;61.57;101729.00;5090277;28;20293;-64
2021/07/09 00:51:20;;;;;;;10.50;5.27;;;;;;;25.67;61.54;101831.31;5090477;28;20198;-64
2021/07/09 00:53:46;;;;;;;8.67;5.27;;;;;;;25.67;61.28;101827.69;5089349;28;20179;-65
2021/07/09 00:56:12;;;;;;;11.10;5.00;;;;;;;25.34;61.47;101776.44;5089849;28;20206;-64
2021/07/09 00:58:37;;;;;;;8.40;5.40;;;;;;;25.63;60.16;101827.94;5090043;28;20559;-64
2021/07/09 01:01:03;;;;;;;9.63;5.80;;;;;;;25.38;59.82;101797.59;5090455;28;20202;-64
2021/07/09 01:03:29;;;;;;;7.33;5.17;;;;;;;25.52;59.86;101827.09;5089598;28;20183;-65
2021/07/09 01:05:54;;;;;;;12.43;5.60;;;;;;;25.42;60.06;101835.03;5089551;28;20198;-64
2021/07/09 01:08:20;;;;;;;13.03;5.67;;;;;;;25.34;60.22;101833.94;5090321;28;20178;-65
2021/07/09 01:10:46;;;;;;;12.40;5.60;;;;;;;25.00;60.24;101798.09;5089920;28;20179;-65
2021/07/09 01:13:12;;;;;;;9.70;5.53;;;;;;;25.24;60.60;101834.63;5089457;28;20322;-65
2021/07/09 01:15:38;;;;;;;8.67;5.77;;;;;;;25.18;60.78;101836.66;5089780;28;20674;-65
2021/07/09 01:18:04;;;;;;;9.20;5.83;;;;;;;25.09;60.84;101831.94;5071703;28;20189;-65
2021/07/09 01:20:29;;;;;;;8.97;6.17;;;;;;;24.98;61.01;101843.19;5089482;28;20327;-64
2021/07/09 01:22:56;;;;;;;11.43;6.10;;;;;;;24.90;61.17;101846.97;5089947;28;20183;-64
2021/07/09 01:25:27;;;;;;;8.40;5.90;;;;;;;24.82;61.52;101846.66;5092249;28;20190;-64
2021/07/09 01:27:59;;;;;;;9.73;6.23;;;;;;;24.76;61.61;101843.00;5111665;28;20643;-64
2021/07/09 01:30:27;;;;;;;8.20;6.27;;;;;;;24.71;61.86;101849.41;5094313;28;20621;-64
2021/07/09 01:32:53;;;;;;;15.87;6.63;;;;;;;24.63;62.08;101848.31;5093716;28;20210;-64
2021/07/09 01:35:22;;;;;;;11.67;6.20;;;;;;;24.53;62.43;101848.94;5093668;28;20558;-65
2021/07/09 01:38:04;;;;;;;13.23;6.17;;;;;;;24.40;62.89;101857.81;5093531;28;20214;-64
2021/07/09 01:40:31;;;;;;;9.77;6.00;;;;;;;24.33;63.04;101844.09;5076087;28;20289;-65
2021/07/09 01:42:57;;;;;;;10.33;6.40;;;;;;;24.33;63.17;101852.59;5093142;28;20182;-65
2021/07/09 01:45:23;;;;;;;10.23;6.47;;;;;;;24.32;63.33;101855.91;5093862;28;20190;-64
2021/07/09 01:47:53;;;;;;;10.70;6.27;;;;;;;24.28;63.48;101858.19;5092968;28;20656;-64
2021/07/09 01:50:19;;;;;;;11.67;6.37;;;;;;;24.22;63.66;101858.13;5075161;28;20183;-65
2021/07/09 01:52:45;;;;;;;13.20;6.53;;;;;;;24.24;63.68;101857.63;5093287;28;20187;-64
2021/07/09 01:55:13;;;;;;;13.63;6.83;;;;;;;24.21;63.65;101862.22;5093099;28;20193;-64
2021/07/09 01:57:39;;;;;;;12.43;6.67;;;;;;;24.21;63.71;101850.13;5094230;28;20182;-65
2021/07/09 02:00:16;;;;;;;12.20;6.53;;;;;;;24.18;63.79;101857.56;5095103;28;20644;-65
2021/07/09 02:02:42;;;;;;;9.03;6.93;;;;;;;23.95;64.57;101867.03;5107098;28;20657;-64
2021/07/09 02:05:13;;;;;;;9.30;6.37;;;;;;;23.90;64.77;101864.16;5101994;28;20183;-64
2021/07/09 02:07:43;;;;;;;9.23;5.87;;;;;;;23.88;64.84;101861.78;5093684;28;20282;-64
2021/07/09 02:10:11;;;;;;;8.73;6.40;;;;;;;23.87;64.94;101865.09;5092423;28;20235;-65
2021/07/09 02:12:37;;;;;;;14.70;6.93;;;;;;;23.88;64.97;101852.50;5102727;28;20182;-65
2021/07/09 02:15:13;;;;;;;14.97;6.97;;;;;;;23.86;65.05;101860.72;5075366;28;20194;-65
2021/07/09 02:17:39;;;;;;;12.07;6.27;;;;;;;23.30;64.99;101763.00;5093016;28;20529;-64
2021/07/09 02:20:07;;;;;;;11.93;7.03;;;;;;;23.90;65.10;101850.00;5074068;28;20240;-65
2021/07/09 02:22:32;;;;;;;12.43;6.80;;;;;;;23.90;65.02;101841.50;5098762;28;20615;-64
2021/07/09 02:24:58;;;;;;;10.40;6.80;;;;;;;23.82;65.45;101851.66;5128700;28;20246;-64
2021/07/09 02:27:24;;;;;;;11.40;6.27;;;;;;;23.80;65.80;101846.47;5122468;28;20182;-65
2021/07/09 02:29:53;;;;;;;12.03;6.40;;;;;;;23.85;65.68;101864.84;5112130;28;20182;-64
2021/07/09 02:32:19;;;;;;;10.70;6.77;;;;;;;23.81;65.50;101850.09;5111287;28;20189;-64
2021/07/09 02:34:45;;;;;;;13.40;7.03;;;;;;;23.76;65.23;101851.59;5112367;28;20186;-65
2021/07/09 02:37:11;;;;;;;11.57;6.63;;;;;;;23.73;65.51;101849.75;5111332;28;20190;-65
2021/07/09 02:39:40;;;;;;;10.60;6.93;;;;;;;23.75;65.57;101852.84;5111969;28;20202;-65
2021/07/09 02:42:06;;;;;;;13.27;7.20;;;;;;;23.74;65.46;101851.28;5111340;28;20562;-64
2021/07/09 02:44:31;;;;;;;12.23;7.30;;;;;;;23.33;65.50;101798.75;5111298;28;20182;-64
2021/07/09 02:46:57;;;;;;;11.37;7.13;;;;;;;23.66;65.42;101847.34;5111923;28;20202;-65
2021/07/09 02:49:23;;;;;;;11.73;7.07;;;;;;;23.64;65.82;101852.69;5115613;28;20185;-65
2021/07/09 02:51:49;;;;;;;7.73;6.30;;;;;;;23.48;66.06;101853.25;5131835;28;20223;-64
2021/07/09 02:54:15;;;;;;;12.23;6.93;;;;;;;23.35;66.37;101852.03;5121426;28;20269;-64
2021/07/09 02:56:40;;;;;;;8.17;6.37;;;;;;;22.57;66.85;101751.00;5112259;28;20719;-65
2021/07/09 02:59:06;;;;;;;11.87;7.30;;;;;;;23.16;66.85;101854.28;5111517;28;20210;-64
2021/07/09 03:01:31;;;;;;;11.87;6.90;;;;;;;23.21;66.64;101855.66;5115729;28;20190;-65
2021/07/09 03:03:57;;;;;;;8.97;7.47;;;;;;;23.25;66.67;101859.06;5115127;28;20251;-64
2021/07/09 03:06:23;;;;;;;14.00;7.57;;;;;;;23.26;66.66;101854.97;5111717;28;20189;-64
2021/07/09 03:08:50;;;;;;;14.27;7.23;;;;;;;22.63;66.61;101763.19;5111557;28;20178;-65
2021/07/09 03:11:16;;;;;;;12.13;7.00;;;;;;;23.32;66.69;101859.44;5110998;28;20261;-65
2021/07/09 03:13:42;;;;;;;11.13;7.47;;;;;;;23.33;66.79;101858.16;5116507;28;20666;-64
2021/07/09 03:16:07;;;;;;;10.13;7.67;;;;;;;23.35;66.72;101864.13;5103742;28;20175;-65
2021/07/09 03:18:33;;;;;;;13.57;7.40;;;;;;;23.38;66.82;101859.53;5091464;28;20610;-65
2021/07/09 03:20:58;;;;;;;13.53;7.40;;;;;;;23.37;66.59;101860.78;5059301;28;1224791;-64
2021/07/09 03:23:24;;;;;;;9.80;7.50;;;;;;;23.39;66.68;101864.69;5111387;28;20684;-65
2021/07/09 03:25:50;;;;;;;15.73;7.93;;;;;;;23.07;66.76;101808.34;5119306;27;20196;-64
2021/07/09 03:28:15;;;;;;;9.33;7.27;;;;;;;23.44;66.58;101866.06;5132904;27;20173;-65
2021/07/09 03:30:42;;;;;;;11.20;7.33;;;;;;;23.43;66.38;101864.50;5117288;27;20185;-65
2021/07/09 03:33:08;;;;;;;12.73;7.30;;;;;;;22.62;66.18;101732.63;5110992;28;20171;-65
2021/07/09 03:35:34;;;;;;;11.37;7.70;;;;;;;23.54;66.50;101867.50;5120507;27;20642;-65
2021/07/09 03:37:59;;;;;;;16.70;7.17;;;;;;;22.89;66.08;101761.31;5130673;27;20185;-64
2021/07/09 03:40:25;;;;;;;13.43;7.40;;;;;;;23.56;66.09;101864.94;5112536;28;20600;-64
2021/07/09 03:42:50;;;;;;;11.23;7.23;;;;;;;23.57;65.96;101870.09;5111178;28;20193;-65
2021/07/09 03:45:16;;;;;;;15.80;7.77;;;;;;;23.59;65.65;101867.56;5111652;28;20671;-64
2021/07/09 03:47:41;;;;;;;11.87;7.27;;;;;;;23.58;65.65;101865.22;5113059;27;20182;-64
2021/07/09 03:50:07;;;;;;;11.60;7.30;;;;;;;23.65;65.39;101867.66;5120518;27;20276;-65
2021/07/09 03:52:33;;;;;;;12.87;7.90;;;;;;;22.96;65.30;101760.91;5120825;27;20182;-64
2021/07/09 03:54:58;;;;;;;11.83;7.77;;;;;;;23.67;65.33;101868.72;5111132;28;20178;-64
2021/07/09 03:57:24;;;;;;;13.33;8.40;;;;;;;23.32;65.30;101824.69;5111570;28;20741;-64
2021/07/09 03:59:49;;;;;;;18.23;8.17;;;;;;;23.60;65.30;101854.94;5122890;27;20272;-64
2021/07/09 04:02:15;;;;;;;13.47;8.10;;;;;;;23.73;65.38;101865.94;5104590;27;20441;-65
2021/07/09 04:04:40;;;;;;;12.13;7.77;;;;;;;23.76;65.72;101864.97;5101191;28;20193;-64
2021/07/09 04:07:06;;;;;;;15.50;8.00;;;;;;;23.81;65.59;101859.38;5111281;28;20179;-65
2021/07/09 04:09:31;;;;;;;20.53;8.23;;;;;;;23.85;65.67;101853.50;5092907;28;20661;-65
2021/07/09 04:11:57;;;;;;;18.37;7.47;;;;;;;23.91;65.75;101848.72;5111395;28;20347;-64
2021/07/09 04:14:22;;;;;;;15.73;7.60;;;;;;;23.99;66.19;101855.50;5115804;27;20262;-65
2021/07/09 04:16:48;;;;;;;13.07;7.80;;;;;;;24.07;66.31;101848.16;5111283;28;20189;-64
2021/07/09 04:19:13;;;;;;;12.33;7.30;;;;;;;24.23;66.00;101850.41;5110561;28;20222;-64
2021/07/09 04:21:39;;;;;;;9.33;6.87;;;;;;;24.33;67.66;101851.81;5111817;28;20222;-64
2021/07/09 04:24:04;;;;;;;8.77;6.73;;;;;;;24.87;65.02;101848.00;5099368;28;20186;-64
2021/07/09 04:26:30;;;;;;;7.83;6.43;;;;;;;25.66;63.05;101857.38;5091977;28;20589;-65
2021/07/09 04:28:55;;;;;;;7.57;5.83;;;;;;;26.27;60.88;101841.41;5106936;28;20239;-65
2021/07/09 04:31:21;;;;;;;7.83;6.87;;;;;;;26.94;58.49;101866.63;5112318;28;20170;-64
2021/07/09 04:33:49;;;;;;;8.60;5.70;;;;;;;26.51;57.81;101771.41;5093169;28;20192;-65
2021/07/09 04:36:16;;;;;;;11.67;5.43;;;;;;;27.08;56.87;101820.03;5109960;28;20178;-64
2021/07/09 04:38:41;;;;;;;8.90;5.40;;;;;;;27.54;56.10;101862.19;5091520;28;20198;-64
2021/07/09 04:41:07;;;;;;;12.63;5.93;;;;;;;27.69;57.17;101863.44;5094908;28;20203;-61
2021/07/09 04:43:32;;;;;;;9.07;5.83;;;;;;;27.89;57.69;101856.69;5110866;28;20174;-61
2021/07/09 04:45:57;;;;;;;10.43;5.93;;;;;;;28.01;57.04;101853.28;5102408;28;20175;-61
2021/07/09 04:48:23;;;;;;;9.13;5.87;;;;;;;28.17;55.72;101852.44;5106297;28;20178;-62
2021/07/09 04:50:48;;;;;;;6.67;5.90;;;;;;;28.29;55.13;101858.81;5099710;28;20670;-61
2021/07/09 04:53:14;;;;;;;9.13;5.90;;;;;;;28.49;54.37;101855.63;5090320;28;20554;-61
2021/07/09 04:55:39;;;;;;;8.05;6.20;;;;;;;28.58;53.50;101853.25;5086849;28;20278;-61
2021/07/09 04:58:05;;;;;;;7.30;6.00;;;;;;;28.40;53.72;101842.47;5071206;28;20183;-62
2021/07/09 05:00:30;;;;;;;8.63;5.88;;;;;;;28.54;53.33;101857.69;5085172;28;20214;-61
2021/07/09 05:02:57;;;;;;;9.67;6.17;;;;;;;28.71;52.73;101855.50;5093804;28;20273;-61
2021/07/09 05:05:23;;;;;;;9.57;5.93;;;;;;;28.64;52.97;101839.72;5096645;28;20722;-69
2021/07/09 05:07:48;;;;;;;9.53;6.37;;;;;;;28.70;52.83;101856.78;5072699;28;20281;-62
2021/07/09 05:10:14;;;;;;;9.03;6.30;;;;;;;28.76;53.05;101855.44;5086784;28;20648;-62
2021/07/09 05:12:39;;;;;;;8.23;6.10;;;;;;;28.49;53.64;101861.34;5092550;28;20664;-62
2021/07/09 05:15:05;;;;;;;12.37;5.70;;;;;;;28.75;52.81;101861.69;5090415;28;20182;-63
2021/07/09 05:17:31;;;;;;;11.23;6.03;;;;;;;28.94;52.20;101860.50;5092307;28;20183;-62
2021/07/09 05:19:56;;;;;;;14.10;6.43;;;;;;;29.08;51.95;101865.06;5089595;27;20695;-62
2021/07/09 05:22:23;;;;;;;9.60;6.47;;;;;;;29.19;51.75;101867.06;5094619;28;20675;-61
2021/07/09 05:24:53;;;;;;;13.50;7.07;;;;;;;29.17;51.80;101870.44;5083419;28;20976;-62
2021/07/09 05:27:19;;;;;;;8.63;6.22;;;;;;;29.26;51.67;101872.19;5093296;28;20264;-61
2021/07/09 05:29:44;;;;;;;8.87;6.23;;;;;;;29.30;51.68;101864.09;5092747;28;20682;-62
2021/07/09 05:32:10;;;;;;;7.60;5.90;;;;;;;29.14;52.35;101856.47;5103203;28;20239;-61
2021/07/09 05:34:36;;;;;;;7.83;6.83;;;;;;;29.04;52.27;101844.63;5087413;28;20233;-62
2021/07/09 05:37:02;;;;;;;10.63;6.97;;;;;;;29.07;52.49;101851.34;5095886;28;20492;-61
2021/07/09 05:39:28;;;;;;;10.57;6.23;;;;;;;28.85;52.74;101805.84;5094914;28;20193;-71
2021/07/09 05:41:53;;;;;;;10.03;6.10;;;;;;;29.12;53.10;101850.53;5092915;28;20217;-62
2021/07/09 05:44:19;;;;;;;12.03;6.60;;;;;;;28.65;53.36;101803.41;5095671;28;20256;-61
2021/07/09 05:46:45;;;;;;;8.30;6.67;;;;;;;29.11;52.87;101854.66;5083197;28;20182;-61
2021/07/09 05:49:10;;;;;;;9.73;6.63;;;;;;;29.08;52.91;101845.09;5084738;28;20671;-61
2021/07/09 05:51:36;;;;;;;11.30;6.73;;;;;;;29.03;53.05;101839.44;5097625;28;20182;-61
2021/07/09 05:54:01;;;;;;;10.70;6.60;;;;;;;29.15;53.20;101843.75;5096802;28;20182;-61
2021/07/09 05:56:27;;;;;;;9.10;6.23;;;;;;;29.19;52.97;101852.78;5093658;28;20186;-61
2021/07/09 05:58:52;;;;;;;6.50;5.80;;;;;;;29.05;53.23;101845.38;5092432;28;20198;-61
2021/07/09 06:01:17;;;;;;;10.07;6.28;;;;;;;29.14;53.64;101850.75;5077545;28;20218;-62
2021/07/09 06:03:43;;;;;;;9.13;6.50;;;;;;;29.04;53.48;101850.34;5093591;28;20279;-61
2021/07/09 06:06:09;;;;;;;7.38;6.25;;;;;;;29.02;53.41;101850.06;5081301;28;20220;-61
2021/07/09 06:08:34;;;;;;;8.38;6.25;;;;;;;29.02;53.63;101846.47;5089058;28;20553;-61
2021/07/09 06:10:59;;;;;;;10.73;6.30;;;;;;;28.61;53.32;101772.31;5094444;28;20183;-61
2021/07/09 06:13:25;;;;;;;10.25;6.38;;;;;;;29.04;53.45;101852.41;5085826;28;20182;-61
2021/07/09 06:15:50;;;;;;;9.18;6.80;;;;;;;29.16;53.03;101851.78;5089014;28;20202;-61
2021/07/09 06:18:16;;;;;;;7.07;6.15;;;;;;;29.17;53.56;101841.13;5090643;28;20716;-63
2021/07/09 06:20:42;;;;;;;7.80;6.13;;;;;;;28.81;53.24;101782.53;5102527;28;20256;-61
2021/07/09 06:23:07;;;;;;;7.88;7.05;;;;;;;29.22;53.49;101843.94;5091015;28;20197;-61
2021/07/09 06:25:33;;;;;;;7.35;6.00;;;;;;;29.11;53.55;101841.19;5087998;28;20186;-63
2021/07/09 06:27:58;;;;;;;8.20;6.57;;;;;;;29.19;53.36;101835.66;5097428;28;20177;-61
2021/07/09 06:30:24;;;;;;;9.82;6.43;;;;;;;29.37;53.65;101837.84;5101016;28;20189;-63
2021/07/09 06:32:49;;;;;;;8.40;6.22;;;;;;;28.72;53.04;101722.97;5089417;28;20621;-62
2021/07/09 06:35:15;;;;;;;9.82;7.07;;;;;;;29.21;53.21;101810.19;5093347;28;20186;-64
2021/07/09 06:37:40;;;;;;;7.47;6.38;;;;;;;29.37;53.36;101823.56;5101894;28;20193;-64
2021/07/09 06:40:09;;;;;;;11.10;6.55;;;;;;;29.35;53.68;101821.22;5104780;28;20183;-65
2021/07/09 06:42:35;;;;;;;8.20;6.25;;;;;;;29.15;53.77;101778.88;5100786;28;20222;-64
2021/07/09 06:45:00;;;;;;;7.40;6.38;;;;;;;29.45;53.43;101818.78;5088026;28;20219;-64
2021/07/09 06:47:26;;;;;;;7.20;6.10;;;;;;;29.41;53.29;101804.81;5094028;28;20641;-62
2021/07/09 06:49:51;;;;;;;12.98;6.90;;;;;;;29.58;53.25;101822.56;5091441;28;20212;-62
2021/07/09 06:52:17;;;;;;;7.38;6.28;;;;;;;29.61;52.94;101824.34;5108480;28;20655;-62
2021/07/09 06:54:43;;;;;;;7.05;6.25;;;;;;;29.71;52.63;101811.25;5097281;28;20186;-62
2021/07/09 06:57:09;;;;;;;7.43;6.15;;;;;;;29.46;52.17;101778.28;5091873;28;20185;-62
2021/07/09 06:59:35;;;;;;;6.82;6.00;;;;;;;29.76;52.24;101810.41;5095790;28;20653;-62
2021/07/09 07:02:01;;;;;;;8.65;5.93;;;;;;;29.73;51.83;101810.72;5099013;28;20212;-62
2021/07/09 07:04:26;;;;;;;6.15;5.55;;;;;;;29.63;51.92;101807.44;5096142;28;20652;-62
2021/07/09 07:06:52;;;;;;;7.60;5.70;;;;;;;29.58;51.88;101805.41;5091395;28;20186;-62
2021/07/09 07:09:18;;;;;;;8.43;5.97;;;;;;;29.63;52.30;101800.97;5092250;28;20633;-62
2021/07/09 07:11:44;;;;;;;8.13;6.10;;;;;;;29.69;52.19;101791.00;5094872;28;20171;-62
2021/07/09 07:14:10;;;;;;;8.65;5.57;;;;;;;29.70;51.84;101792.56;5095232;28;20695;-64
2021/07/09 07:16:35;;;;;;;6.03;5.35;;;;;;;29.26;51.98;101732.28;5097227;28;20187;-63
2021/07/09 07:19:01;;;;;;;7.63;6.10;;;;;;;29.32;51.81;101742.34;5099048;28;20190;-63
2021/07/09 07:21:26;;;;;;;6.65;5.80;;;;;;;29.70;52.23;101778.28;5095037;28;20282;-62
2021/07/09 07:23:51;;;;;;;6.82;6.10;;;;;;;29.74;51.82;101783.69;5073283;28;20668;-62
2021/07/09 07:26:17;;;;;;;9.80;6.13;;;;;;;29.93;52.14;101784.44;5090501;28;20178;-62
2021/07/09 07:28:42;;;;;;;8.10;5.68;;;;;;;29.96;51.54;101787.03;5099898;28;20548;-62
2021/07/09 07:31:09;;;;;;;5.78;5.18;;;;;;;29.51;50.89;101708.88;5103386;28;20175;-62
2021/07/09 07:33:36;;;;;;;6.25;5.05;;;;;;;29.40;50.76;101682.53;5099122;28;21099;-62
2021/07/09 07:36:02;;;;;;;6.70;4.95;;;;;;;29.94;50.56;101754.59;5087613;28;20270;-62
2021/07/09 07:38:27;;;;;;;7.07;5.30;;;;;;;30.10;50.46;101767.84;5091878;28;20678;-62
2021/07/09 07:40:53;;;;;;;6.45;5.78;;;;;;;30.23;50.34;101776.53;5088943;28;20695;-62
2021/07/09 07:43:18;;;;;;;7.47;5.50;;;;;;;30.22;50.06;101780.69;5096801;28;20170;-62
2021/07/09 07:45:44;;;;;;;6.65;5.30;;;;;;;30.23;50.02;101776.53;5099212;28;20181;-62
2021/07/09 07:48:10;;;;;;;7.30;5.47;;;;;;;30.23;49.47;101777.31;5094687;28;20174;-63
2021/07/09 07:50:35;;;;;;;9.55;5.25;;;;;;;30.22;49.34;101770.03;5077804;28;20189;-62
2021/07/09 07:53:01;;;;;;;5.85;4.88;;;;;;;30.19;49.40;101782.56;5097374;28;20668;-63
2021/07/09 07:55:26;;;;;;;5.65;4.90;;;;;;;30.37;49.07;101789.56;5099832;28;20268;-63
2021/07/09 07:57:52;;;;;;;5.43;4.68;;;;;;;30.51;48.68;101785.47;5084462;28;20574;-63
2021/07/09 08:00:18;;;;;;;6.38;4.70;;;;;;;30.61;48.03;101775.16;5095104;28;20561;-63
2021/07/09 08:02:43;;;;;;;6.05;4.75;;;;;;;30.66;48.48;101780.81;5106102;28;20190;-63
2021/07/09 08:05:11;;;;;;;7.25;5.35;;;;;;;30.16;48.14;101688.53;5091726;28;20749;-62
2021/07/09 08:07:36;;;;;;;6.78;4.88;;;;;;;30.68;48.63;101777.41;5100056;28;20190;-62
2021/07/09 08:10:04;;;;;;;5.43;4.90;;;;;;;30.71;48.28;101779.94;5099967;28;20191;-62
2021/07/09 08:12:29;;;;;;;6.85;5.07;;;;;;;30.65;48.29;101761.31;5091999;28;20207;-68
2021/07/09 08:14:54;;;;;;;7.05;4.80;;;;;;;30.34;48.35;101714.22;5060605;28;20228;-65
2021/07/09 08:17:20;;;;;;;5.65;5.07;;;;;;;30.74;48.24;101769.50;5075176;28;20663;-64
2021/07/09 08:19:45;;;;;;;6.47;5.38;;;;;;;30.89;47.93;101767.69;5073621;28;20193;-63
2021/07/09 08:22:11;;;;;;;5.25;4.57;;;;;;;30.83;47.57;101771.94;5073429;28;20765;-64
2021/07/09 08:24:36;;;;;;;5.60;4.47;;;;;;;30.78;47.40;101762.16;5093402;28;20721;-63
2021/07/09 08:27:02;;;;;;;5.03;4.35;;;;;;;30.76;47.76;101759.03;5087773;28;20179;-64
2021/07/09 08:29:27;;;;;;;8.20;4.57;;;;;;;30.74;47.52;101749.47;5047605;28;20201;-64
2021/07/09 08:31:54;;;;;;;4.93;4.43;;;;;;;30.96;47.34;101746.22;5077181;28;20448;-66
2021/07/09 08:34:19;;;;;;;6.55;3.58;;;;;;;31.05;47.01;101746.56;5094683;28;20179;-61
2021/07/09 08:36:45;;;;;;;5.55;4.22;;;;;;;31.14;46.18;101751.06;5096100;28;20651;-64
2021/07/09 08:39:15;;;;;;;5.28;4.22;;;;;;;31.30;46.39;101750.78;5087074;28;20190;-64
2021/07/09 08:41:40;;;;;;;4.70;3.60;;;;;;;31.35;45.83;101746.25;5091995;28;20210;-64
2021/07/09 08:44:06;;;;;;;6.80;3.95;;;;;;;31.61;45.18;101749.09;5095671;28;20308;-64
2021/07/09 08:46:32;;;;;;;5.13;3.88;;;;;;;31.01;44.84;101648.00;5091465;28;20182;-64
2021/07/09 08:48:58;;;;;;;8.13;3.80;;;;;;;31.64;44.81;101750.88;5092078;28;20183;-64
2021/07/09 08:51:23;;;;;;;8.20;4.13;;;;;;;31.81;44.17;101751.31;5097006;28;20177;-64
2021/07/09 08:53:49;;;;;;;6.30;4.03;;;;;;;31.30;44.15;101673.47;5099919;28;20183;-64
2021/07/09 08:56:15;;;;;;;4.60;3.90;;;;;;;31.90;44.28;101751.63;5090897;28;20762;-64
2021/07/09 08:58:41;;;;;;;4.90;3.92;;;;;;;32.07;43.52;101737.69;5055643;28;20581;-64
2021/07/09 09:01:07;;;;;;;4.95;3.92;;;;;;;32.11;43.49;101737.34;5083703;28;20736;-64
2021/07/09 09:03:33;;;;;;;6.00;4.07;;;;;;;32.24;43.78;101745.91;5084691;28;20186;-65
2021/07/09 09:06:01;;;;;;;9.75;4.50;;;;;;;32.26;43.03;101746.91;5088976;28;20602;-63
2021/07/09 09:08:35;;;;;;;4.40;4.00;;;;;;;32.18;43.61;101746.03;5071346;28;20194;-63
2021/07/09 09:11:02;;;;;;;5.57;4.07;;;;;;;32.01;43.75;101734.19;5067453;28;20238;-68
2021/07/09 09:13:30;;;;;;;9.38;4.57;;;;;;;31.91;43.95;101738.84;5084056;28;20191;-64
2021/07/09 09:16:04;;;;;;;5.28;4.20;;;;;;;32.04;43.70;101738.78;5086686;28;20186;-63
2021/07/09 09:18:33;;;;;;;4.38;3.92;;;;;;;32.17;44.09;101737.97;5082042;28;20221;-65
2021/07/09 09:21:08;;;;;;;6.97;4.50;;;;;;;32.11;43.60;101726.66;5073500;28;20230;-64
2021/07/09 09:23:36;;;;;;;6.95;4.55;;;;;;;32.19;43.63;101736.09;5085624;28;20190;-64
2021/07/09 09:26:04;;;;;;;5.43;4.05;;;;;;;32.23;43.76;101709.94;5086472;28;20186;-61
2021/07/09 09:28:35;;;;;;;7.43;3.75;;;;;;;32.58;42.97;101735.16;5088763;28;20175;-61
2021/07/09 09:31:00;;;;;;;7.05;4.20;;;;;;;32.69;42.61;101720.53;5088176;28;20186;-63
2021/07/09 09:33:34;;;;;;;5.38;3.97;;;;;;;32.44;42.98;101723.00;5100839;28;20178;-63
2021/07/09 09:36:05;;;;;;;8.57;4.30;;;;;;;32.59;42.49;101716.59;5097736;28;20196;-63
2021/07/09 09:38:30;;;;;;;6.78;4.00;;;;;;;32.27;42.09;101635.81;5105748;28;20559;-63
2021/07/09 09:40:58;;;;;;;7.40;4.00;;;;;;;32.86;42.01;101713.03;5101295;28;20194;-59
2021/07/09 09:43:30;;;;;;;6.00;4.00;;;;;;;32.98;42.05;101707.78;5092224;28;20199;-60
2021/07/09 09:46:04;;;;;;;5.38;4.00;;;;;;;33.03;41.25;101696.16;5083976;28;20179;-59
2021/07/09 09:48:48;;;;;;;5.95;4.00;;;;;;;32.70;42.22;101699.88;5076690;28;20178;-60
2021/07/09 09:51:33;;;;;;;7.25;4.18;;;;;;;32.68;42.27;101690.28;5095089;28;20207;-60
2021/07/09 09:54:02;;;;;;;6.22;4.13;;;;;;;32.93;41.55;101685.72;5101019;28;20513;-62
2021/07/09 09:56:46;;;;;;;5.45;3.70;;;;;;;32.77;41.55;101624.56;5070440;28;20190;-63
2021/07/09 09:59:16;;;;;;;7.22;4.15;;;;;;;33.26;40.70;101676.19;5091158;28;20685;-62
2021/07/09 10:01:52;;;;;;;4.78;4.00;;;;;;;33.39;41.10;101678.94;5104435;28;20711;-62
2021/07/09 10:04:18;;;;;;;6.07;4.18;;;;;;;33.38;41.41;101663.03;5105526;28;20713;-64
2021/07/09 10:06:44;;;;;;;6.25;4.03;;;;;;;32.99;41.08;101617.41;5103175;28;20182;-69
2021/07/09 10:09:12;;;;;;;7.88;4.25;;;;;;;33.35;40.52;101676.44;5104506;28;20182;-62
2021/07/09 10:11:39;;;;;;;5.80;4.00;;;;;;;33.37;40.29;101661.50;5085405;28;20243;-62
2021/07/09 10:14:09;;;;;;;6.40;3.80;;;;;;;33.05;39.98;101615.16;5102611;28;20270;-64
2021/07/09 10:16:36;;;;;;;4.80;3.50;;;;;;;33.35;39.49;101656.31;5101891;28;20206;-62
2021/07/09 10:19:05;;;;;;;5.13;3.75;;;;;;;33.16;40.14;101649.31;5095674;28;20183;-63
2021/07/09 10:21:31;;;;;;;4.13;3.50;;;;;;;33.18;39.81;101620.78;5108675;27;20272;-61
2021/07/09 10:23:56;;;;;;;9.55;3.95;;;;;;;33.41;40.12;101650.41;5110308;28;20670;-62
2021/07/09 10:26:22;;;;;;;4.32;3.90;;;;;;;32.89;40.55;101528.16;5109425;27;20189;-62
2021/07/09 10:29:10;;;;;;;5.82;4.03;;;;;;;33.58;40.03;101647.78;5099230;28;20182;-66
2021/07/09 10:31:37;;;;;;;5.60;4.20;;;;;;;33.58;39.76;101639.91;5107963;28;20182;-66
2021/07/09 10:34:32;;;;;;;5.82;3.90;;;;;;;33.65;40.45;101629.78;5107654;28;20205;-66
2021/07/09 10:37:00;;;;;;;7.45;4.40;;;;;;;33.90;39.83;101631.63;5104826;28;20200;-66
2021/07/09 10:39:34;;;;;;;5.50;3.80;;;;;;;34.14;39.05;101636.06;5113621;27;20182;-66
2021/07/09 10:42:21;;;;;;;4.90;3.67;;;;;;;33.95;39.19;101641.41;5106374;28;20701;-66
2021/07/09 10:45:00;;;;;;;4.70;3.90;;;;;;;33.85;38.26;101635.44;5101568;28;20654;-65
2021/07/09 10:47:44;;;;;;;5.68;4.10;;;;;;;33.95;38.79;101638.53;5092863;28;20189;-63
2021/07/09 10:50:14;;;;;;;4.28;3.40;;;;;;;33.88;38.59;101628.53;5104067;27;20618;-64
2021/07/09 10:52:46;;;;;;;5.85;3.83;;;;;;;33.97;38.43;101625.13;5093305;28;20193;-64
2021/07/09 10:55:27;;;;;;;5.43;4.10;;;;;;;34.02;38.17;101621.28;5108009;28;20175;-67
2021/07/09 10:58:07;;;;;;;4.15;3.75;;;;;;;33.61;38.79;101626.53;5110566;28;20581;-63
2021/07/09 11:00:45;;;;;;;4.55;3.75;;;;;;;33.42;39.09;101614.59;5106776;28;20627;-62
2021/07/09 11:03:20;;;;;;;3.83;3.40;;;;;;;33.39;39.20;101602.13;5102537;28;20214;-67
2021/07/09 11:05:49;;;;;;;7.35;4.07;;;;;;;33.42;39.42;101600.97;5109381;28;20223;-67
2021/07/09 11:08:29;;;;;;;4.63;3.67;;;;;;;33.44;39.39;101603.28;5092588;28;20292;-67
2021/07/09 11:11:08;;;;;;;4.38;3.72;;;;;;;33.51;39.26;101603.31;5091918;27;20181;-64
2021/07/09 11:13:40;;;;;;;5.60;4.10;;;;;;;33.61;38.55;101606.41;5085392;28;20281;-64
2021/07/09 11:16:24;;;;;;;6.00;4.00;;;;;;;33.69;38.94;101602.22;5092145;28;20339;-64
2021/07/09 11:18:54;;;;;;;5.05;3.65;;;;;;;33.87;39.13;101598.25;5103581;28;20397;-65
2021/07/09 11:21:29;;;;;;;9.40;3.92;;;;;;;34.17;38.37;101604.03;5109559;28;20230;-64
2021/07/09 11:23:55;;;;;;;4.65;3.70;;;;;;;34.07;38.15;101522.53;5088701;28;20245;-64